createdAt,value
2018-12-12T00:01:20.644Z,0.80
2018-12-12T00:03:49.799Z,0.90
2018-12-12T00:06:18.948Z,0.90
2018-12-12T00:08:48.065Z,0.90
2018-12-12T00:11:17.180Z,0.80
2018-12-12T00:13:46.254Z,0.70
2018-12-12T00:16:15.315Z,0.60
2018-12-12T00:18:46.219Z,0.60
2018-12-12T00:21:15.330Z,0.70
2018-12-12T00:23:44.449Z,0.70
2018-12-12T00:26:13.499Z,0.70
2018-12-12T00:28:42.655Z,0.80
2018-12-12T00:31:11.748Z,0.80
2018-12-12T00:33:40.858Z,0.80
2018-12-12T00:36:09.939Z,0.90
2018-12-12T00:38:39.070Z,0.90
2018-12-12T00:41:08.190Z,0.90
2018-12-12T00:43:37.250Z,0.90
2018-12-12T00:46:06.346Z,0.80
2018-12-12T00:48:35.450Z,0.80
2018-12-12T00:51:04.676Z,0.80
2018-12-12T00:53:33.769Z,0.80
2018-12-12T00:56:03.256Z,0.80
2018-12-12T00:58:32.343Z,0.90
2018-12-12T01:01:01.474Z,0.90
2018-12-12T01:03:30.553Z,0.80
2018-12-12T01:05:59.767Z,0.90
2018-12-12T01:08:28.879Z,0.90
2018-12-12T01:11:03.202Z,0.90
2018-12-12T01:13:32.283Z,0.90
2018-12-12T01:16:01.393Z,0.90
2018-12-12T01:18:30.489Z,0.90
2018-12-12T01:20:59.634Z,0.80
2018-12-12T01:23:28.719Z,0.80
2018-12-12T01:25:57.869Z,0.80
2018-12-12T01:28:27.012Z,0.80
2018-12-12T01:30:56.131Z,0.80
2018-12-12T01:33:25.208Z,0.80
2018-12-12T01:35:54.306Z,0.80
2018-12-12T01:38:23.370Z,0.80
2018-12-12T01:40:52.468Z,0.80
2018-12-12T01:43:21.553Z,0.80
2018-12-12T01:45:50.730Z,0.80
2018-12-12T01:48:19.811Z,0.80
2018-12-12T01:50:49.051Z,0.80
2018-12-12T01:53:18.597Z,0.80
2018-12-12T01:55:47.743Z,0.70
2018-12-12T01:58:16.831Z,0.70
2018-12-12T02:00:45.914Z,0.70
2018-12-12T02:03:15.018Z,0.70
2018-12-12T02:05:44.180Z,0.70
2018-12-12T02:08:13.370Z,0.80
2018-12-12T02:10:42.652Z,0.80
2018-12-12T02:13:25.748Z,0.80
2018-12-12T02:15:54.843Z,0.80
2018-12-12T02:18:25.942Z,0.90
2018-12-12T02:20:55.051Z,0.80
2018-12-12T02:23:24.303Z,0.90
2018-12-12T02:25:53.375Z,0.90
2018-12-12T02:28:22.487Z,0.90
2018-12-12T02:30:51.588Z,0.90
2018-12-12T02:33:20.693Z,0.80
2018-12-12T02:35:49.821Z,0.90
2018-12-12T02:38:18.951Z,0.80
2018-12-12T02:40:48.039Z,0.80
2018-12-12T02:43:17.217Z,0.90
2018-12-12T02:45:46.271Z,0.90
2018-12-12T02:48:15.704Z,0.90
2018-12-12T02:50:44.737Z,0.90
2018-12-12T02:53:13.930Z,0.90
2018-12-12T02:55:43.045Z,0.90
2018-12-12T02:58:12.666Z,0.80
2018-12-12T03:00:41.912Z,0.80
2018-12-12T03:03:11.012Z,0.80
2018-12-12T03:05:40.120Z,0.80
2018-12-12T03:08:09.309Z,0.80
2018-12-12T03:10:38.441Z,0.80
2018-12-12T03:13:08.482Z,0.80
2018-12-12T03:15:37.671Z,0.80
2018-12-12T03:18:06.866Z,0.80
2018-12-12T03:20:35.929Z,0.90
2018-12-12T03:23:05.822Z,0.90
2018-12-12T03:25:34.941Z,0.90
2018-12-12T03:28:06.647Z,0.90
2018-12-12T03:30:35.767Z,1.00
2018-12-12T03:33:04.937Z,0.90
2018-12-12T03:35:34.073Z,0.90
2018-12-12T03:38:03.262Z,0.90
2018-12-12T03:40:32.755Z,0.90
2018-12-12T03:43:01.945Z,0.90
2018-12-12T03:45:31.167Z,0.90
2018-12-12T03:48:00.206Z,0.90
2018-12-12T03:50:29.304Z,0.80
2018-12-12T03:52:58.426Z,0.80
2018-12-12T03:55:27.579Z,0.80
2018-12-12T03:57:56.712Z,0.80
2018-12-12T04:00:25.832Z,0.80
2018-12-12T04:02:54.904Z,0.70
2018-12-12T04:05:24.070Z,0.70
2018-12-12T04:07:53.130Z,0.70
2018-12-12T04:10:22.215Z,0.70
2018-12-12T04:12:51.340Z,0.60
2018-12-12T04:15:20.503Z,0.70
2018-12-12T04:17:49.625Z,0.80
2018-12-12T04:20:18.817Z,0.80
2018-12-12T04:22:48.011Z,0.80
2018-12-12T04:25:17.143Z,0.80
2018-12-12T04:27:46.238Z,0.80
2018-12-12T04:30:15.338Z,0.70
2018-12-12T04:32:44.474Z,0.70
2018-12-12T04:35:13.598Z,0.60
2018-12-12T04:37:42.675Z,0.70
2018-12-12T04:40:11.813Z,0.60
2018-12-12T04:42:40.907Z,0.50
2018-12-12T04:45:10.058Z,0.50
2018-12-12T04:47:39.235Z,0.50
2018-12-12T04:50:08.543Z,0.50
2018-12-12T04:52:37.685Z,0.50
2018-12-12T04:55:06.794Z,0.50
2018-12-12T04:57:35.893Z,0.50
2018-12-12T05:00:05.395Z,0.40
2018-12-12T05:02:34.686Z,0.40
2018-12-12T05:05:03.987Z,0.40
2018-12-12T05:07:33.227Z,0.40
2018-12-12T05:10:02.266Z,0.40
2018-12-12T05:12:31.386Z,0.30
2018-12-12T05:15:00.471Z,0.30
2018-12-12T05:17:29.636Z,0.40
2018-12-12T05:19:58.833Z,0.40
2018-12-12T05:22:28.061Z,0.40
2018-12-12T05:24:57.223Z,0.30
2018-12-12T05:27:26.359Z,0.30
2018-12-12T05:29:55.444Z,0.30
2018-12-12T05:32:24.570Z,0.30
2018-12-12T05:34:53.657Z,0.30
2018-12-12T05:37:22.769Z,0.30
2018-12-12T05:39:51.906Z,0.20
2018-12-12T05:42:21.082Z,0.30
2018-12-12T05:44:50.220Z,0.20
2018-12-12T05:47:19.326Z,0.30
2018-12-12T05:49:48.423Z,0.30
2018-12-12T05:52:17.592Z,0.30
2018-12-12T05:54:46.656Z,0.30
2018-12-12T05:57:15.673Z,0.30
2018-12-12T05:59:45.138Z,0.30
2018-12-12T06:02:14.299Z,0.20
2018-12-12T06:04:43.468Z,0.20
2018-12-12T06:07:12.567Z,0.10
2018-12-12T06:09:41.671Z,0.20
2018-12-12T06:12:10.823Z,0.10
2018-12-12T06:14:39.958Z,0.10
2018-12-12T06:17:09.222Z,0.10
2018-12-12T06:19:38.465Z,0.10
2018-12-12T06:22:08.266Z,0.10
2018-12-12T06:24:37.991Z,0.20
2018-12-12T06:27:07.628Z,0.20
2018-12-12T06:29:36.877Z,0.20
2018-12-12T06:32:06.042Z,0.20
2018-12-12T06:34:35.221Z,0.20
2018-12-12T06:37:04.360Z,0.10
2018-12-12T06:39:33.487Z,0.10
2018-12-12T06:42:02.608Z,0.10
2018-12-12T06:44:31.755Z,0.10
2018-12-12T06:47:00.960Z,0.10
2018-12-12T06:49:30.159Z,0.10
2018-12-12T06:51:59.255Z,0.20
2018-12-12T06:54:28.464Z,0.10
2018-12-12T06:56:57.689Z,0.20
2018-12-12T06:59:26.815Z,0.20
2018-12-12T07:01:56.003Z,0.10
2018-12-12T07:04:25.165Z,0.20
2018-12-12T07:06:54.331Z,0.20
2018-12-12T07:09:23.404Z,0.20
2018-12-12T07:11:52.583Z,0.20
2018-12-12T07:14:21.726Z,0.20
2018-12-12T07:16:51.892Z,0.20
2018-12-12T07:19:20.951Z,0.20
2018-12-12T07:21:50.070Z,0.30
2018-12-12T07:24:19.207Z,0.30
2018-12-12T07:26:48.334Z,0.30
2018-12-12T07:29:17.446Z,0.30
2018-12-12T07:31:46.581Z,0.40
2018-12-12T07:34:15.695Z,0.40
2018-12-12T07:36:45.184Z,0.40
2018-12-12T07:39:17.828Z,0.40
2018-12-12T07:41:45.807Z,0.40
2018-12-12T07:44:14.914Z,0.40
2018-12-12T07:46:44.563Z,0.40
2018-12-12T07:49:13.998Z,0.40
2018-12-12T07:51:43.148Z,0.40
2018-12-12T07:54:12.268Z,0.40
2018-12-12T07:56:41.333Z,0.40
2018-12-12T07:59:10.462Z,0.40
2018-12-12T08:01:39.552Z,0.40
2018-12-12T08:04:08.730Z,0.40
2018-12-12T08:06:37.794Z,0.40
2018-12-12T08:09:08.454Z,0.50
2018-12-12T08:11:37.553Z,0.60
2018-12-12T08:14:06.690Z,0.50
2018-12-12T08:16:35.776Z,0.50
2018-12-12T08:19:04.875Z,0.50
2018-12-12T08:21:33.983Z,0.50
2018-12-12T08:24:03.147Z,0.50
2018-12-12T08:26:32.323Z,0.40
2018-12-12T08:29:01.514Z,0.40
2018-12-12T08:31:30.624Z,0.40
2018-12-12T08:33:59.784Z,0.50
2018-12-12T08:36:28.930Z,0.50
2018-12-12T08:38:58.039Z,0.50
2018-12-12T08:41:27.196Z,0.60
2018-12-12T08:43:57.134Z,0.60
2018-12-12T08:46:26.426Z,0.60
2018-12-12T08:48:55.495Z,0.60
2018-12-12T08:51:24.660Z,0.60
2018-12-12T08:53:53.794Z,0.60
2018-12-12T08:56:22.889Z,0.60
2018-12-12T08:58:51.939Z,0.70
2018-12-12T09:01:21.112Z,0.70
2018-12-12T09:03:50.205Z,0.80
2018-12-12T09:06:19.410Z,0.80
2018-12-12T09:08:48.501Z,0.80
2018-12-12T09:11:17.637Z,0.80
2018-12-12T09:13:46.766Z,0.80
2018-12-12T09:16:15.900Z,0.80
2018-12-12T09:18:44.969Z,0.80
2018-12-12T09:21:14.166Z,0.80
2018-12-12T09:23:43.369Z,0.80
2018-12-12T09:26:12.470Z,0.90
2018-12-12T09:28:41.609Z,1.00
2018-12-12T09:31:10.806Z,1.00
2018-12-12T09:33:39.898Z,1.00
2018-12-12T09:36:09.015Z,1.00
2018-12-12T09:38:38.205Z,1.00
2018-12-12T09:41:07.315Z,1.00
2018-12-12T09:43:36.486Z,1.00
2018-12-12T09:46:06.351Z,1.00
2018-12-12T09:48:35.420Z,1.00
2018-12-12T09:51:07.273Z,1.10
2018-12-12T09:53:35.745Z,1.10
2018-12-12T09:56:05.184Z,1.10
2018-12-12T09:58:34.274Z,1.10
2018-12-12T10:01:03.399Z,1.10
2018-12-12T10:03:32.605Z,1.10
2018-12-12T10:06:01.803Z,1.20
2018-12-12T10:08:32.240Z,1.10
2018-12-12T10:11:01.290Z,1.20
2018-12-12T10:13:30.397Z,1.20
2018-12-12T10:16:00.192Z,1.20
2018-12-12T10:18:29.385Z,1.20
2018-12-12T10:20:58.492Z,1.20
2018-12-12T10:23:28.499Z,1.20
2018-12-12T10:25:57.550Z,1.20
2018-12-12T10:28:26.763Z,1.20
2018-12-12T10:30:55.860Z,1.10
2018-12-12T10:33:25.810Z,1.20
2018-12-12T10:35:54.877Z,1.10
2018-12-12T10:38:24.949Z,1.10
2018-12-12T10:40:54.088Z,1.10
2018-12-12T10:43:23.280Z,1.20
2018-12-12T10:45:52.362Z,1.10
2018-12-12T10:48:21.454Z,1.10
2018-12-12T10:50:50.662Z,1.10
2018-12-12T10:53:19.860Z,1.10
2018-12-12T10:55:49.024Z,1.10
2018-12-12T10:58:18.139Z,1.00
2018-12-12T11:00:53.249Z,1.00
2018-12-12T11:03:27.550Z,1.10
2018-12-12T11:05:56.715Z,1.00
2018-12-12T11:08:25.873Z,1.10
2018-12-12T11:10:54.986Z,1.10
2018-12-12T11:13:24.216Z,1.10
2018-12-12T11:15:53.310Z,1.20
2018-12-12T11:18:22.558Z,1.10
2018-12-12T11:20:51.662Z,1.10
2018-12-12T11:23:20.819Z,1.20
2018-12-12T11:25:50.226Z,1.20
2018-12-12T11:28:19.322Z,1.20
2018-12-12T11:30:48.451Z,1.10
2018-12-12T11:33:17.610Z,1.20
2018-12-12T11:35:46.871Z,1.30
2018-12-12T11:38:15.943Z,1.40
2018-12-12T11:40:45.039Z,1.40
2018-12-12T11:43:14.383Z,1.20
2018-12-12T11:45:43.589Z,1.20
2018-12-12T11:48:12.668Z,1.20
2018-12-12T11:50:41.808Z,1.20
2018-12-12T11:53:10.941Z,1.20
2018-12-12T11:55:40.031Z,1.10
2018-12-12T11:58:09.215Z,1.20
2018-12-12T12:00:38.322Z,1.20
2018-12-12T12:03:07.510Z,1.20
2018-12-12T12:05:36.647Z,1.30
2018-12-12T12:08:05.753Z,1.30
2018-12-12T12:10:34.842Z,1.20
2018-12-12T12:13:04.607Z,1.20
2018-12-12T12:15:33.798Z,1.20
2018-12-12T12:18:03.012Z,1.30
2018-12-12T12:20:32.159Z,1.30
2018-12-12T12:23:01.322Z,1.30
2018-12-12T12:25:30.451Z,1.40
2018-12-12T12:27:59.573Z,1.40
2018-12-12T12:30:28.662Z,1.40
2018-12-12T12:32:57.859Z,1.40
2018-12-12T12:35:27.009Z,1.40
2018-12-12T12:37:56.164Z,1.50
2018-12-12T12:40:25.266Z,1.50
2018-12-12T12:42:54.451Z,1.50
2018-12-12T12:45:23.691Z,1.40
2018-12-12T12:47:52.813Z,1.40
2018-12-12T12:50:21.941Z,1.40
2018-12-12T12:52:51.030Z,1.40
2018-12-12T12:55:20.146Z,1.40
2018-12-12T12:57:49.244Z,1.40
2018-12-12T13:00:18.337Z,1.50
2018-12-12T13:02:47.478Z,1.50
2018-12-12T13:05:16.658Z,1.50
2018-12-12T13:07:45.852Z,1.40
2018-12-12T13:10:15.007Z,1.40
2018-12-12T13:12:45.165Z,1.40
2018-12-12T13:15:14.726Z,1.40
2018-12-12T13:17:43.797Z,1.40
2018-12-12T13:20:12.956Z,1.40
2018-12-12T13:22:42.055Z,1.40
2018-12-12T13:25:11.318Z,1.40
2018-12-12T13:27:40.498Z,1.40
2018-12-12T13:30:09.798Z,1.40
2018-12-12T13:32:38.915Z,1.30
2018-12-12T13:35:08.246Z,1.30
2018-12-12T13:37:37.347Z,1.30
2018-12-12T13:40:07.199Z,1.20
2018-12-12T13:42:36.272Z,1.30
2018-12-12T13:45:05.502Z,1.30
2018-12-12T13:47:34.609Z,1.20
2018-12-12T13:50:03.767Z,1.30
2018-12-12T13:52:32.862Z,1.20
2018-12-12T13:55:01.919Z,1.30
2018-12-12T13:57:31.087Z,1.30
2018-12-12T14:00:00.422Z,1.30
2018-12-12T14:02:29.539Z,1.30
2018-12-12T14:04:58.586Z,1.20
2018-12-12T14:07:27.714Z,1.20
2018-12-12T14:09:56.907Z,1.20
2018-12-12T14:12:25.991Z,1.30
2018-12-12T14:14:55.058Z,1.30
2018-12-12T14:17:24.183Z,1.20
2018-12-12T14:19:53.313Z,1.20
2018-12-12T14:22:22.436Z,1.10
2018-12-12T14:24:51.601Z,1.20
2018-12-12T14:27:20.745Z,1.20
2018-12-12T14:29:49.854Z,1.20
2018-12-12T14:32:18.961Z,1.30
2018-12-12T14:34:48.128Z,1.30
2018-12-12T14:37:17.275Z,1.30
2018-12-12T14:39:46.365Z,1.20
2018-12-12T14:42:15.510Z,1.30
2018-12-12T14:44:45.859Z,1.30
2018-12-12T14:47:15.009Z,1.20
2018-12-12T14:49:44.111Z,1.20
2018-12-12T14:52:13.301Z,1.10
2018-12-12T14:54:42.821Z,1.10
2018-12-12T14:57:12.168Z,1.10
2018-12-12T14:59:41.255Z,1.10
2018-12-12T15:02:10.377Z,1.10
2018-12-12T15:04:39.375Z,1.10
2018-12-12T15:07:11.374Z,1.10
2018-12-12T15:09:40.438Z,1.20
2018-12-12T15:12:09.672Z,1.20
2018-12-12T15:14:38.791Z,1.20
2018-12-12T15:17:08.060Z,1.20
2018-12-12T15:19:38.040Z,1.20
2018-12-12T15:22:07.337Z,1.20
2018-12-12T15:24:36.734Z,1.20
2018-12-12T15:27:07.379Z,1.20
2018-12-12T15:29:36.826Z,1.10
2018-12-12T15:32:06.006Z,1.10
2018-12-12T15:34:42.205Z,1.10
2018-12-12T15:37:07.006Z,1.10
2018-12-12T15:39:36.211Z,1.10
2018-12-12T15:42:05.510Z,1.10
2018-12-12T15:44:34.810Z,1.00
2018-12-12T15:47:04.123Z,1.00
2018-12-12T15:49:33.256Z,1.00
2018-12-12T15:52:02.592Z,1.00
2018-12-12T15:54:32.925Z,1.10
2018-12-12T15:57:02.235Z,1.10
2018-12-12T15:59:31.552Z,1.10
2018-12-12T16:02:00.813Z,1.10
2018-12-12T16:04:31.004Z,1.10
2018-12-12T16:07:00.357Z,1.20
2018-12-12T16:09:29.598Z,1.20
2018-12-12T16:11:58.737Z,1.20
2018-12-12T16:14:28.006Z,1.20
2018-12-12T16:16:57.367Z,1.20
2018-12-12T16:19:26.626Z,1.20
2018-12-12T16:21:55.863Z,1.20
2018-12-12T16:24:25.192Z,1.20
2018-12-12T16:26:54.346Z,1.20
2018-12-12T16:29:23.523Z,1.10
2018-12-12T16:31:52.815Z,1.20
2018-12-12T16:34:23.041Z,1.20
2018-12-12T16:36:52.905Z,1.10
2018-12-12T16:39:22.247Z,1.20
2018-12-12T16:41:51.574Z,1.10
2018-12-12T16:44:20.926Z,1.20
2018-12-12T16:46:50.290Z,1.10
2018-12-12T16:49:19.591Z,1.10
2018-12-12T16:51:48.762Z,1.10
2018-12-12T16:54:18.229Z,1.10
2018-12-12T16:56:47.752Z,1.10
2018-12-12T16:59:17.099Z,1.10
2018-12-12T17:01:46.946Z,1.10
2018-12-12T17:04:16.190Z,1.10
2018-12-12T17:06:45.366Z,1.10
2018-12-12T17:09:14.625Z,1.10
2018-12-12T17:11:43.766Z,1.10
2018-12-12T17:14:12.843Z,1.10
2018-12-12T17:16:42.054Z,1.10
2018-12-12T17:19:11.193Z,1.10
2018-12-12T17:21:40.316Z,1.10
2018-12-12T17:24:09.400Z,1.10
2018-12-12T17:26:38.575Z,1.10
2018-12-12T17:29:07.724Z,1.10
2018-12-12T17:31:37.050Z,1.10
2018-12-12T17:34:06.253Z,1.10
2018-12-12T17:36:35.463Z,1.00
2018-12-12T17:39:07.425Z,1.00
2018-12-12T17:41:36.531Z,0.90
2018-12-12T17:44:05.680Z,1.00
2018-12-12T17:46:34.802Z,1.00
2018-12-12T17:49:04.013Z,1.10
2018-12-12T17:51:33.114Z,1.00
2018-12-12T17:54:03.186Z,0.90
2018-12-12T17:56:32.499Z,0.80
2018-12-12T17:59:01.630Z,0.80
2018-12-12T18:01:30.783Z,0.70
2018-12-12T18:03:59.932Z,0.70
2018-12-12T18:06:29.166Z,0.70
2018-12-12T18:08:58.315Z,0.60
2018-12-12T18:11:27.414Z,0.70
2018-12-12T18:13:56.585Z,0.60
2018-12-12T18:16:25.765Z,0.50
2018-12-12T18:18:54.925Z,0.60
2018-12-12T18:21:25.138Z,0.50
2018-12-12T18:23:54.398Z,0.50
2018-12-12T18:26:23.538Z,0.50
2018-12-12T18:28:52.627Z,0.50
2018-12-12T18:31:21.830Z,0.50
2018-12-12T18:33:50.906Z,0.50
2018-12-12T18:36:20.186Z,0.40
2018-12-12T18:38:49.276Z,0.50
2018-12-12T18:41:18.460Z,0.40
2018-12-12T18:43:47.617Z,0.40
2018-12-12T18:46:16.779Z,0.30
2018-12-12T18:48:45.975Z,0.30
2018-12-12T18:51:15.186Z,0.20
2018-12-12T18:53:44.511Z,0.30
2018-12-12T18:56:13.681Z,0.20
2018-12-12T18:58:43.657Z,0.20
2018-12-12T19:01:12.797Z,0.30
2018-12-12T19:03:41.902Z,0.20
2018-12-12T19:06:10.981Z,0.20
2018-12-12T19:08:40.110Z,0.20
2018-12-12T19:11:09.246Z,0.20
2018-12-12T19:13:38.412Z,0.20
2018-12-12T19:16:07.619Z,0.20
2018-12-12T19:18:36.747Z,0.20
2018-12-12T19:21:05.840Z,0.20
2018-12-12T19:23:35.129Z,0.20
2018-12-12T19:26:04.242Z,0.10
2018-12-12T19:28:33.439Z,0.10
2018-12-12T19:31:03.892Z,0.10
2018-12-12T19:33:33.059Z,0.10
2018-12-12T19:36:02.241Z,0.10
2018-12-12T19:38:31.381Z,0.10
2018-12-12T19:41:00.521Z,0.10
2018-12-12T19:43:29.643Z,0.10
2018-12-12T19:45:58.788Z,0.10
2018-12-12T19:48:27.916Z,0.00
2018-12-12T19:50:57.062Z,0.10
2018-12-12T19:53:28.843Z,0.10
2018-12-12T19:55:58.246Z,0.10
2018-12-12T19:58:27.411Z,0.10
2018-12-12T20:00:56.515Z,0.10
2018-12-12T20:03:26.052Z,0.10
2018-12-12T20:05:55.244Z,0.00
2018-12-12T20:08:24.418Z,0.00
2018-12-12T20:10:53.553Z,0.10
2018-12-12T20:13:22.670Z,0.10
2018-12-12T20:15:51.842Z,0.10
2018-12-12T20:18:21.098Z,0.10
2018-12-12T20:20:50.746Z,0.10
2018-12-12T20:23:19.830Z,0.10
2018-12-12T20:25:48.922Z,0.00
2018-12-12T20:28:18.367Z,0.00
2018-12-12T20:30:47.971Z,0.00
2018-12-12T20:33:17.458Z,0.00
2018-12-12T20:35:48.138Z,0.00
2018-12-12T20:38:18.273Z,-0.10
2018-12-12T20:40:48.434Z,-0.10
2018-12-12T20:43:18.218Z,-0.20
2018-12-12T20:45:47.631Z,-0.20
2018-12-12T20:48:16.957Z,-0.20
2018-12-12T20:50:46.308Z,-0.20
2018-12-12T20:53:15.947Z,-0.20
2018-12-12T20:55:45.662Z,-0.20
2018-12-12T20:58:15.134Z,-0.20
2018-12-12T21:00:46.280Z,-0.30
2018-12-12T21:03:16.794Z,-0.30
2018-12-12T21:05:46.287Z,-0.30
2018-12-12T21:08:15.755Z,-0.40
2018-12-12T21:10:45.167Z,-0.40
2018-12-12T21:13:14.641Z,-0.40
2018-12-12T21:15:48.136Z,-0.40
2018-12-12T21:18:18.530Z,-0.40
2018-12-12T21:20:49.588Z,-0.50
2018-12-12T21:23:19.937Z,-0.50
2018-12-12T21:25:49.790Z,-0.40
2018-12-12T21:28:19.274Z,-0.50
2018-12-12T21:30:48.880Z,-0.50
2018-12-12T21:33:18.405Z,-0.40
2018-12-12T21:35:48.098Z,-0.40
2018-12-12T21:38:17.191Z,-0.40
2018-12-12T21:40:47.709Z,-0.40
2018-12-12T21:43:17.051Z,-0.40
2018-12-12T21:45:46.266Z,-0.40
2018-12-12T21:48:15.421Z,-0.40
2018-12-12T21:50:44.554Z,-0.40
2018-12-12T21:53:13.692Z,-0.40
2018-12-12T21:55:42.911Z,-0.30
2018-12-12T21:58:12.103Z,-0.30
2018-12-12T22:00:41.254Z,-0.30
2018-12-12T22:03:10.354Z,-0.30
2018-12-12T22:05:39.551Z,-0.30
2018-12-12T22:08:08.692Z,-0.30
2018-12-12T22:10:37.742Z,-0.20
2018-12-12T22:13:06.894Z,-0.20
2018-12-12T22:15:36.025Z,-0.20
2018-12-12T22:18:05.251Z,-0.10
2018-12-12T22:20:34.441Z,-0.10
2018-12-12T22:23:03.642Z,0.00
2018-12-12T22:25:33.066Z,0.00
2018-12-12T22:28:02.254Z,0.00
2018-12-12T22:30:31.327Z,0.00
2018-12-12T22:33:00.423Z,0.10
2018-12-12T22:35:29.587Z,0.10
2018-12-12T22:37:58.666Z,0.00
2018-12-12T22:40:27.678Z,0.10
2018-12-12T22:42:56.853Z,0.10
2018-12-12T22:45:26.825Z,0.10
2018-12-12T22:47:56.113Z,0.00
2018-12-12T22:50:25.163Z,0.10
2018-12-12T22:52:54.235Z,0.10
2018-12-12T22:55:23.309Z,0.10
2018-12-12T22:57:52.611Z,0.10
2018-12-12T23:00:26.902Z,0.10
2018-12-12T23:02:56.040Z,0.10
2018-12-12T23:05:25.066Z,0.10
2018-12-12T23:07:54.185Z,0.10
2018-12-12T23:10:23.307Z,0.00
2018-12-12T23:12:52.446Z,0.00
2018-12-12T23:15:21.616Z,0.00
2018-12-12T23:17:50.826Z,0.00
2018-12-12T23:20:19.945Z,0.00
2018-12-12T23:22:49.074Z,0.00
2018-12-12T23:25:18.247Z,0.00
2018-12-12T23:27:48.575Z,0.00
2018-12-12T23:30:17.722Z,0.00
2018-12-12T23:32:46.762Z,0.00
2018-12-12T23:35:15.916Z,0.00
2018-12-12T23:37:45.001Z,0.00
2018-12-12T23:40:14.170Z,0.10
2018-12-12T23:42:43.256Z,0.10
2018-12-12T23:45:12.413Z,0.10
2018-12-12T23:47:41.531Z,0.00
2018-12-12T23:50:10.732Z,-0.10
2018-12-12T23:52:39.797Z,-0.10
2018-12-12T23:55:08.933Z,-0.10
2018-12-12T23:57:38.047Z,-0.10
